Meteo Giornale » Osservazioni meteo Stati Uniti (USA) » Decatur

ore: 16:54 - Osservazioni Meteo Decatur
Lat. 39° 50' N Lon. 88° 51' W Alt. 208 metri s.l.m.

sereno

34 °C

Sereno

Temp. 24 Ore

21 °C

35 °C

Sud

18.5 Km/h

Dew point 20 °C

Umidità 43 %

Visibilità  10 Km

Il sole sorge alle ore 06:22

Il sole tramonta alle ore 19:28

Data e Ora Cielo e Fenomeni T °C DP °C Um. % Pres. hPa Vis. km Vento km/h
Oggi h: 16:54 sereno Sereno 34 20 43 1015 10 S 18.5
Oggi h: 15:54 sereno Sereno 35 20 41 1015 10 S/SO 22.2
Oggi h: 14:54 sereno Sereno 34 19 41 1015 10 S 20.3
Oggi h: 13:54 sereno Sereno 34 19 41 1016 10 S 22.2
Oggi h: 12:54 sereno Sereno 33 19 43 1017 10 S/SO 18.5
Oggi h: 11:54 sereno Sereno 32 19 46 1017 10 S/SO 18.5
Oggi h: 10:54 sereno Sereno 30 19 51 1017 10 S/SO 22.2
Oggi h: 09:54 sereno Sereno 28 18 54 1017 10 SO 18.5
Oggi h: 08:54 sereno Sereno 26 17 57 1017 10 SO 20.3
Oggi h: 07:54 sereno Sereno 23 18 73 1017 10 SO 16.7
Oggi h: 06:54 sereno Sereno 21 17 77 1016 10 S/SO 11.1
Oggi h: 05:54 sereno Sereno 21 17 77 1016 10 S/SO 11.1
Oggi h: 04:54 sereno Sereno 22 17 73 1016 10 S/SO 13
Oggi h: 03:54 sereno Sereno 23 17 68 1016 10 S/SO 16.7
Oggi h: 02:54 sereno Sereno 22 17 73 1016 10 S 9.3
Oggi h: 01:54 sereno Sereno 23 17 68 1016 10 S 11.1
Oggi h: 00:54 sereno Sereno 23 17 68 1016 10 S 9.3
Ieri h: 23:54 sereno Sereno 24 17 64 1016 10 S 9.3
Ieri h: 22:54 sereno Sereno 25 16 57 1016 10 S 16.7
Ieri h: 21:54 sereno Sereno 25 17 61 1016 10 S 16.7
Ieri h: 20:54 sereno Sereno 26 17 57 1016 10 S 14.8
Ieri h: 19:54 sereno Sereno 26 18 61 1016 10 S 13
Ieri h: 18:54 sereno Sereno 28 18 54 1016 10 S 11.1
Ieri h: 17:54 sereno Sereno 30 17 45 1016 10 S 14.8